Time;durP1;ratioP1;P1;durP2;ratioP2;P2;SDS_P1;SDS_P2;PMS_P1;PMS_P2;Temp;Humidity;BMP_temperature;BMP_pressure;BME280_temperature;BME280_humidity;BME280_pressure;Samples;Min_cycle;Max_cycle;Signal;HPM_P1;HPM_P2
2021/12/16 00:08:59;;;;;;;76.63;31.20;;;;;;;8.29;100.00;103436.94;5200015;28;20025;-72
2021/12/16 00:31:23;;;;;;;77.97;31.17;;;;;;;8.36;100.00;103454.38;5199723;28;20026;-72
2021/12/16 00:34:00;;;;;;;76.38;30.55;;;;;;;8.32;100.00;103450.13;5200166;28;20037;-72
2021/12/16 00:36:35;;;;;;;83.28;31.42;;;;;;;8.33;100.00;103454.50;5198986;28;20032;-73
2021/12/16 00:39:11;;;;;;;81.70;30.67;;;;;;;8.35;100.00;103449.94;5199755;28;20497;-72
2021/12/16 00:41:45;;;;;;;83.22;29.92;;;;;;;8.30;100.00;103450.22;5191522;28;20102;-72
2021/12/16 00:49:50;;;;;;;73.10;29.45;;;;;;;8.30;100.00;103454.72;5195598;28;20477;-72
2021/12/16 00:57:49;;;;;;;70.05;30.90;;;;;;;8.30;100.00;103460.06;5203616;28;20033;-73
2021/12/16 01:00:25;;;;;;;81.88;32.03;;;;;;;8.29;100.00;103455.66;5203841;28;20569;-72
2021/12/16 01:03:17;;;;;;;80.80;31.33;;;;;;;8.28;100.00;103467.28;5203452;28;20025;-72
2021/12/16 01:06:12;;;;;;;85.43;31.80;;;;;;;8.26;100.00;103472.72;5202846;28;20058;-72
2021/12/16 01:35:19;;;;;;;79.25;30.70;;;;;;;8.25;100.00;103476.34;5201021;28;20014;-73
2021/12/16 01:38:30;;;;;;;82.85;30.88;;;;;;;8.23;100.00;103477.38;5193088;28;20452;-73
2021/12/16 01:41:33;;;;;;;79.78;33.15;;;;;;;8.24;100.00;103476.47;5204930;28;20055;-72
2021/12/16 01:46:55;;;;;;;81.07;31.45;;;;;;;8.28;100.00;103470.84;5201848;28;20026;-72
2021/12/16 01:49:36;;;;;;;85.05;30.48;;;;;;;8.25;100.00;103468.34;5192393;28;20021;-72
2021/12/16 01:52:29;;;;;;;75.82;30.40;;;;;;;8.26;100.00;103474.53;5202610;28;20026;-72
2021/12/16 01:55:12;;;;;;;79.05;32.55;;;;;;;8.26;100.00;103467.38;5202042;28;20103;-73
2021/12/16 01:57:50;;;;;;;82.57;32.47;;;;;;;8.19;100.00;103474.03;5202426;28;20534;-72
2021/12/16 02:00:52;;;;;;;78.15;32.00;;;;;;;8.20;100.00;103477.56;5201246;28;20037;-73
2021/12/16 02:03:36;;;;;;;73.53;29.42;;;;;;;8.19;100.00;103482.06;5202524;28;20474;-72
2021/12/16 02:08:51;;;;;;;84.38;31.52;;;;;;;8.19;100.00;103486.56;5202485;28;20021;-73
2021/12/16 02:11:44;;;;;;;82.88;32.83;;;;;;;8.23;100.00;103494.31;5202308;28;20052;-72
2021/12/16 02:29:26;;;;;;;81.93;31.58;;;;;;;8.26;100.00;103493.28;5201866;28;20084;-72
2021/12/16 02:32:05;;;;;;;75.55;31.23;;;;;;;8.21;100.00;103498.00;5202400;28;20047;-72
2021/12/16 02:34:57;;;;;;;84.80;32.53;;;;;;;8.25;100.00;103510.28;5201815;28;20017;-72
2021/12/16 02:37:31;;;;;;;85.78;32.70;;;;;;;8.24;100.00;103503.19;5201549;28;20026;-72
2021/12/16 02:40:08;;;;;;;85.85;33.20;;;;;;;8.17;100.00;103501.81;5201839;28;20108;-72
2021/12/16 02:42:53;;;;;;;77.28;31.80;;;;;;;8.19;100.00;103498.09;5201740;28;20025;-72
2021/12/16 02:48:30;;;;;;;75.75;31.98;;;;;;;8.18;100.00;103500.84;5200850;28;20026;-72
2021/12/16 02:51:08;;;;;;;74.37;30.83;;;;;;;8.16;100.00;103505.44;5202044;28;20025;-72
2021/12/16 02:53:47;;;;;;;80.90;31.42;;;;;;;8.13;100.00;103501.09;5201769;28;20417;-72
2021/12/16 02:56:21;;;;;;;83.07;32.97;;;;;;;8.13;100.00;103501.09;5200735;28;20029;-72
2021/12/16 02:58:55;;;;;;;75.63;32.78;;;;;;;8.14;100.00;103499.31;5201548;28;20128;-72
2021/12/16 03:01:33;;;;;;;83.72;33.60;;;;;;;8.12;100.00;103509.22;5200368;28;20346;-72
2021/12/16 03:04:09;;;;;;;86.32;33.15;;;;;;;8.10;100.00;103512.00;5201503;28;20045;-72
2021/12/16 03:06:43;;;;;;;76.18;32.35;;;;;;;8.10;100.00;103516.47;5201304;28;20390;-72
2021/12/16 03:09:18;;;;;;;81.82;33.35;;;;;;;8.08;100.00;103510.34;5201844;28;20025;-72
2021/12/16 03:12:30;;;;;;;83.70;34.88;;;;;;;8.08;100.00;103508.50;5200540;28;20037;-72
2021/12/16 03:14:51;;;;;;;81.30;32.25;;;;;;;8.11;100.00;103512.84;5200763;28;20017;-72
2021/12/16 03:17:32;;;;;;;86.00;34.05;;;;;;;8.10;100.00;103511.13;5188035;28;20030;-72
2021/12/16 03:20:12;;;;;;;89.30;34.45;;;;;;;8.07;100.00;103511.28;5201185;28;20033;-72
2021/12/16 03:23:01;;;;;;;89.43;33.88;;;;;;;8.07;100.00;103511.28;5201404;28;20028;-72
2021/12/16 03:25:52;;;;;;;82.05;34.05;;;;;;;8.06;100.00;103515.78;5200366;28;20034;-72
2021/12/16 03:31:06;;;;;;;83.88;34.20;;;;;;;8.06;100.00;103507.75;5201031;28;20124;-72
2021/12/16 03:36:29;;;;;;;79.93;32.53;;;;;;;8.06;100.00;103513.09;5200395;28;20033;-72
2021/12/16 03:39:03;;;;;;;79.35;33.03;;;;;;;8.13;100.00;103518.97;5200998;28;20497;-72
2021/12/16 03:41:35;;;;;;;104.97;49.03;;;;;;;8.10;100.00;103521.81;5200575;28;20030;-72
2021/12/16 03:44:11;;;;;;;92.40;37.92;;;;;;;8.09;100.00;103512.94;5205686;28;20341;-72
2021/12/16 03:46:47;;;;;;;86.82;34.30;;;;;;;8.07;100.00;103521.97;5200923;28;20022;-72
2021/12/16 03:49:22;;;;;;;94.15;37.03;;;;;;;8.04;100.00;103523.88;5195598;28;20485;-72
2021/12/16 03:52:06;;;;;;;92.32;36.00;;;;;;;8.05;100.00;103530.94;5199794;28;20389;-73
2021/12/16 03:54:42;;;;;;;90.43;34.13;;;;;;;8.04;100.00;103526.56;5200558;28;20086;-72
2021/12/16 03:57:13;;;;;;;88.30;35.72;;;;;;;8.00;100.00;103530.34;5198650;28;20033;-72
2021/12/16 03:59:45;;;;;;;93.82;35.40;;;;;;;8.04;100.00;103528.38;5194366;28;20079;-72
2021/12/16 04:02:21;;;;;;;83.68;33.67;;;;;;;7.98;100.00;103529.56;5195992;28;20022;-72
2021/12/16 04:04:52;;;;;;;86.43;34.78;;;;;;;7.96;100.00;103536.81;5192576;28;20056;-72
2021/12/16 04:07:28;;;;;;;84.65;34.75;;;;;;;7.95;100.00;103529.72;5200648;28;20022;-72
2021/12/16 04:09:59;;;;;;;93.30;33.88;;;;;;;7.97;100.00;103530.50;5200669;28;20025;-72
2021/12/16 04:12:30;;;;;;;90.90;34.60;;;;;;;7.96;100.00;103531.44;5200409;28;20083;-72
2021/12/16 04:15:04;;;;;;;95.15;35.38;;;;;;;7.90;100.00;103531.78;5198605;28;20045;-72
2021/12/16 04:17:35;;;;;;;89.55;34.97;;;;;;;7.90;100.00;103531.78;5200654;28;20358;-72
2021/12/16 04:20:10;;;;;;;80.35;34.08;;;;;;;7.89;100.00;103534.56;5200448;28;20021;-72
2021/12/16 04:22:44;;;;;;;84.57;34.95;;;;;;;7.85;100.00;103541.00;5200425;28;20210;-73
2021/12/16 04:25:20;;;;;;;102.03;36.90;;;;;;;7.87;100.00;103539.97;5200079;28;20036;-72
2021/12/16 04:27:53;;;;;;;83.53;34.33;;;;;;;7.89;100.00;103538.09;5199889;28;20033;-72
2021/12/16 04:30:26;;;;;;;96.75;36.78;;;;;;;7.89;100.00;103540.75;5204782;28;20059;-72
2021/12/16 04:32:57;;;;;;;96.55;37.17;;;;;;;7.85;100.00;103533.84;5204842;28;20111;-72
2021/12/16 04:35:28;;;;;;;89.63;34.67;;;;;;;7.84;100.00;103541.97;5204075;28;20489;-72
2021/12/16 04:37:59;;;;;;;94.68;34.85;;;;;;;7.86;100.00;103535.56;5204896;28;20044;-72
2021/12/16 04:40:30;;;;;;;86.70;33.85;;;;;;;7.88;100.00;103538.16;5203905;28;20025;-72
2021/12/16 04:43:02;;;;;;;92.85;34.95;;;;;;;7.84;100.00;103544.63;5206304;28;20029;-72
2021/12/16 04:45:34;;;;;;;93.38;33.95;;;;;;;7.83;100.00;103549.13;5202541;28;20253;-72
2021/12/16 04:48:05;;;;;;;91.22;34.35;;;;;;;7.81;100.00;103544.78;5203080;28;20026;-72
2021/12/16 04:50:36;;;;;;;88.13;36.00;;;;;;;7.82;100.00;103539.34;5203864;28;20029;-72
2021/12/16 04:53:06;;;;;;;87.60;35.38;;;;;;;7.82;100.00;103543.84;5204133;28;20029;-72
2021/12/16 04:55:37;;;;;;;91.55;35.22;;;;;;;7.80;100.00;103551.94;5203845;28;20021;-72
2021/12/16 04:58:07;;;;;;;94.18;34.90;;;;;;;7.80;100.00;103549.28;5204306;28;20389;-72
2021/12/16 05:00:38;;;;;;;89.45;34.28;;;;;;;7.79;100.00;103545.75;5203681;28;20489;-72
2021/12/16 05:03:10;;;;;;;100.80;35.80;;;;;;;7.77;100.00;103547.63;5202628;28;20030;-72
2021/12/16 05:05:40;;;;;;;95.80;35.42;;;;;;;7.79;100.00;103542.22;5203166;28;20045;-72
2021/12/16 05:08:11;;;;;;;91.38;36.15;;;;;;;7.78;100.00;103543.13;5203770;28;20489;-72
2021/12/16 05:10:42;;;;;;;100.82;37.33;;;;;;;7.77;100.00;103541.41;5204376;28;20037;-72
2021/12/16 05:13:13;;;;;;;98.43;36.35;;;;;;;7.78;100.00;103543.13;5205825;28;20478;-72
2021/12/16 05:15:44;;;;;;;97.68;36.50;;;;;;;7.79;100.00;103547.56;5203182;28;20160;-72
2021/12/16 05:18:21;;;;;;;95.32;37.53;;;;;;;7.77;100.00;103541.41;5200531;28;20037;-72
2021/12/16 05:20:53;;;;;;;104.03;35.92;;;;;;;7.76;100.00;103545.03;5202160;28;20017;-72
2021/12/16 05:28:53;;;;;;;106.18;37.50;;;;;;;7.78;100.00;103546.69;5203437;28;20029;-72
2021/12/16 05:31:27;;;;;;;97.93;37.10;;;;;;;7.79;100.00;103545.75;5203392;28;20052;-73
2021/12/16 05:34:00;;;;;;;107.30;40.15;;;;;;;7.77;100.00;103550.28;5203066;28;20109;-73
2021/12/16 05:36:30;;;;;;;101.40;38.22;;;;;;;7.78;100.00;103548.47;5202697;28;20389;-72
2021/12/16 05:39:03;;;;;;;107.63;39.13;;;;;;;7.79;100.00;103550.22;5202576;28;20041;-72
2021/12/16 05:41:34;;;;;;;104.28;38.97;;;;;;;7.81;100.00;103555.47;5202969;28;20091;-72
2021/12/16 05:44:05;;;;;;;103.72;39.85;;;;;;;7.80;100.00;103557.28;5202913;28;20025;-72
2021/12/16 05:46:37;;;;;;;107.53;38.83;;;;;;;7.77;100.00;103555.63;5202879;28;20051;-72
2021/12/16 05:49:12;;;;;;;109.53;39.80;;;;;;;7.78;100.00;103561.84;5202176;28;20029;-72
2021/12/16 05:51:47;;;;;;;105.72;38.50;;;;;;;7.82;100.00;103567.91;5202832;28;20112;-72
2021/12/16 05:54:20;;;;;;;104.32;38.92;;;;;;;7.84;100.00;103558.00;5201724;28;20398;-72
2021/12/16 05:56:51;;;;;;;102.53;37.95;;;;;;;7.82;100.00;103562.53;5202508;28;20520;-72
2021/12/16 05:59:22;;;;;;;102.25;38.72;;;;;;;7.79;100.00;103571.59;5202750;28;20029;-72
2021/12/16 06:01:53;;;;;;;101.20;38.60;;;;;;;7.81;100.00;103579.53;5202603;28;20029;-72
2021/12/16 06:04:23;;;;;;;102.22;37.65;;;;;;;7.80;100.00;103578.69;5202202;28;20116;-72
2021/12/16 06:06:54;;;;;;;103.95;38.35;;;;;;;7.78;100.00;103577.88;5202341;28;20037;-72
2021/12/16 06:09:24;;;;;;;102.38;37.63;;;;;;;7.79;100.00;103577.81;5202339;28;20051;-72
2021/12/16 06:11:55;;;;;;;98.88;37.83;;;;;;;7.77;100.00;103574.34;5202825;28;20034;-72
2021/12/16 06:14:41;;;;;;;110.13;37.85;;;;;;;7.80;100.00;103576.00;5202259;28;20385;-72
2021/12/16 06:26:27;;;;;;;110.10;37.67;;;;;;;7.78;100.00;103591.22;5202100;28;20110;-71
2021/12/16 06:28:47;;;;;;;107.70;39.00;;;;;;;7.78;100.00;103581.44;5202371;28;20030;-72
2021/12/16 06:31:17;;;;;;;102.80;38.55;;;;;;;7.81;100.00;103577.72;5180690;28;20030;-72
2021/12/16 06:33:48;;;;;;;112.32;40.70;;;;;;;7.79;100.00;103588.50;5196436;28;20071;-72
2021/12/16 06:36:19;;;;;;;103.40;37.42;;;;;;;7.78;100.00;103583.22;5201663;28;20075;-72
2021/12/16 06:38:50;;;;;;;105.38;39.65;;;;;;;7.75;100.00;103586.06;5199240;28;20029;-72
2021/12/16 06:41:21;;;;;;;112.85;45.55;;;;;;;7.78;100.00;103592.13;5201427;28;20037;-72
2021/12/16 06:43:54;;;;;;;109.72;40.42;;;;;;;7.76;100.00;103587.78;5199309;28;20025;-73
2021/12/16 06:46:32;;;;;;;108.68;38.58;;;;;;;7.74;100.00;103585.22;5200185;28;20117;-72
2021/12/16 06:49:04;;;;;;;95.70;37.53;;;;;;;7.76;100.00;103594.00;5201726;28;20026;-72
2021/12/16 06:51:43;;;;;;;106.15;39.72;;;;;;;7.72;100.00;103595.09;5201168;28;20029;-71
2021/12/16 06:54:22;;;;;;;106.82;39.05;;;;;;;7.74;100.00;103598.56;5201230;28;20375;-72
2021/12/16 06:57:12;;;;;;;108.38;40.40;;;;;;;7.74;100.00;103603.06;5201585;28;20094;-72
2021/12/16 06:59:52;;;;;;;114.82;41.00;;;;;;;7.71;100.00;103598.72;5201901;28;20014;-72
2021/12/16 07:02:48;;;;;;;118.60;41.53;;;;;;;7.69;100.00;103600.63;5201297;28;20056;-72
2021/12/16 07:05:21;;;;;;;128.27;46.17;;;;;;;7.68;100.00;103614.03;5196725;28;20559;-72
2021/12/16 07:07:52;;;;;;;112.07;41.20;;;;;;;7.68;100.00;103619.38;5201585;28;20037;-73
2021/12/16 07:10:23;;;;;;;114.55;40.22;;;;;;;7.68;100.00;103616.72;5200943;28;20034;-72
2021/12/16 07:12:56;;;;;;;103.35;38.50;;;;;;;7.66;100.00;103618.63;5200266;28;20477;-73
2021/12/16 07:15:29;;;;;;;110.70;39.58;;;;;;;7.62;100.00;103625.06;5200531;28;20497;-72
2021/12/16 07:18:00;;;;;;;102.88;36.97;;;;;;;7.56;100.00;103620.91;5201270;28;20373;-73
2021/12/16 07:20:32;;;;;;;96.53;36.60;;;;;;;7.56;100.00;103623.56;5201018;28;20030;-73
2021/12/16 07:23:06;;;;;;;106.15;39.53;;;;;;;7.56;100.00;103630.72;5201167;28;20037;-72
2021/12/16 07:25:37;;;;;;;114.88;41.38;;;;;;;7.52;100.00;103636.22;5200800;28;20075;-72
2021/12/16 07:28:09;;;;;;;106.40;37.55;;;;;;;7.55;100.00;103637.00;5201480;28;20029;-72
2021/12/16 07:30:42;;;;;;;105.88;39.03;;;;;;;7.54;100.00;103636.16;5201097;28;20374;-72
2021/12/16 07:33:13;;;;;;;108.47;39.67;;;;;;;7.54;100.00;103638.81;5200810;28;20036;-72
2021/12/16 07:35:45;;;;;;;105.10;37.60;;;;;;;7.53;100.00;103639.78;5199612;28;20075;-72
2021/12/16 07:38:16;;;;;;;104.60;37.80;;;;;;;7.55;100.00;103637.88;5200855;28;20025;-73
2021/12/16 07:40:50;;;;;;;110.45;39.38;;;;;;;7.53;100.00;103650.47;5198291;28;20021;-72
2021/12/16 07:46:11;;;;;;;97.97;36.63;;;;;;;7.59;100.00;103662.63;5189363;28;20034;-72
2021/12/16 07:48:41;;;;;;;110.40;38.47;;;;;;;7.60;100.00;103675.91;5184097;28;20109;-73
2021/12/16 07:51:12;;;;;;;114.65;39.53;;;;;;;7.62;100.00;103667.81;5198998;28;20026;-72
2021/12/16 07:53:43;;;;;;;102.18;37.10;;;;;;;7.62;100.00;103673.16;5197515;28;20510;-74
2021/12/16 07:56:14;;;;;;;106.53;37.33;;;;;;;7.57;100.00;103677.88;5196698;28;20075;-72
2021/12/16 07:58:44;;;;;;;100.78;35.83;;;;;;;7.55;100.00;103687.78;5191603;28;20605;-74
2021/12/16 08:01:15;;;;;;;91.32;35.25;;;;;;;7.55;100.00;103690.44;5187458;28;20033;-73
2021/12/16 08:03:46;;;;;;;95.18;34.85;;;;;;;7.58;100.00;103687.59;5190701;28;20031;-74
2021/12/16 08:06:22;;;;;;;107.93;38.47;;;;;;;7.58;100.00;103693.84;5198083;28;20026;-73
2021/12/16 08:08:59;;;;;;;107.70;36.95;;;;;;;7.58;100.00;103696.50;5198080;28;20068;-72
2021/12/16 08:11:33;;;;;;;94.13;36.30;;;;;;;7.61;100.00;103706.16;5199398;28;20056;-72
2021/12/16 08:14:04;;;;;;;92.60;36.70;;;;;;;7.60;100.00;103694.59;5198750;28;20078;-71
2021/12/16 08:16:35;;;;;;;97.10;36.33;;;;;;;7.63;100.00;103698.91;5198186;28;20029;-73
2021/12/16 08:19:07;;;;;;;100.30;38.83;;;;;;;7.63;100.00;103705.16;5196519;28;20017;-70
2021/12/16 08:21:38;;;;;;;97.28;37.13;;;;;;;7.64;100.00;103711.34;5196276;28;20035;-72
2021/12/16 08:24:14;;;;;;;98.05;36.78;;;;;;;7.65;100.00;103705.06;5197137;28;20029;-70
2021/12/16 08:26:46;;;;;;;;;;;;;;;7.65;100.00;103713.94;5193451;28;20056;-71
2021/12/16 08:29:17;;;;;;;88.80;31.45;;;;;;;7.66;100.00;103714.81;5184060;28;20369;-72
2021/12/16 08:31:47;;;;;;;99.88;34.58;;;;;;;7.64;100.00;103717.56;5188939;28;20033;-71
2021/12/16 08:34:18;;;;;;;95.78;34.40;;;;;;;7.66;100.00;103725.50;5198379;28;20076;-72
2021/12/16 08:36:49;;;;;;;95.40;35.47;;;;;;;7.69;100.00;103730.69;5197137;28;20036;-73
2021/12/16 08:39:20;;;;;;;99.53;38.72;;;;;;;7.72;100.00;103728.72;5180426;28;20072;-72
2021/12/16 08:41:53;;;;;;;106.03;37.28;;;;;;;7.79;100.00;103739.97;5187000;28;20156;-72
2021/12/16 08:44:25;;;;;;;94.05;35.15;;;;;;;7.81;100.00;103743.44;5186268;28;20591;-72
2021/12/16 08:47:00;;;;;;;94.55;35.13;;;;;;;7.86;100.00;103753.88;5197971;28;20274;-74
2021/12/16 08:49:31;;;;;;;;;;;;;;;7.87;100.00;103745.78;5198317;28;20026;-72
2021/12/16 08:52:06;;;;;;;92.60;34.50;;;;;;;7.88;100.00;103755.56;5193049;28;20337;-73
2021/12/16 08:54:37;;;;;;;;;;;;;;;7.90;100.00;103758.13;5177602;28;20374;-72
2021/12/16 08:57:07;;;;;;;96.97;35.55;;;;;;;7.93;100.00;103755.28;5178078;28;19910;-70
2021/12/16 08:59:38;;;;;;;81.18;32.95;;;;;;;7.98;100.00;103761.28;5178498;28;20101;-72
2021/12/16 09:02:09;;;;;;;92.63;32.95;;;;;;;8.03;100.00;103762.78;5196242;28;20057;-72
2021/12/16 09:04:40;;;;;;;87.00;34.13;;;;;;;8.09;100.00;103771.44;5198026;28;20036;-73
2021/12/16 09:07:11;;;;;;;91.25;34.85;;;;;;;8.15;100.00;103766.63;5192305;28;20048;-72
2021/12/16 09:09:45;;;;;;;94.45;34.65;;;;;;;8.18;100.00;103769.16;5198440;28;20408;-73
2021/12/16 09:15:08;;;;;;;95.25;35.58;;;;;;;8.28;100.00;103762.38;5204482;28;20100;-72
2021/12/16 09:17:39;;;;;;;97.65;35.60;;;;;;;8.33;100.00;103764.78;5201295;28;20059;-72
2021/12/16 09:20:10;;;;;;;102.82;38.20;;;;;;;8.38;100.00;103762.78;5199325;28;20628;-72
2021/12/16 09:22:42;;;;;;;91.72;38.20;;;;;;;8.43;100.00;103766.06;5202227;28;20112;-72
2021/12/16 09:25:13;;;;;;;89.28;35.95;;;;;;;8.48;100.00;103769.41;5189900;28;20030;-72
2021/12/16 09:27:43;;;;;;;89.35;35.45;;;;;;;8.52;100.00;103770.94;5179801;28;20408;-72
2021/12/16 09:30:18;;;;;;;94.85;36.10;;;;;;;8.56;100.00;103766.28;5180968;28;20035;-73
2021/12/16 09:32:51;;;;;;;96.05;37.50;;;;;;;8.61;100.00;103785.66;5181532;28;20113;-72
2021/12/16 09:35:22;;;;;;;92.15;37.75;;;;;;;8.66;100.00;103780.06;5187258;28;20053;-73
2021/12/16 09:37:54;;;;;;;91.43;34.95;;;;;;;8.67;100.00;103781.78;5189023;28;20061;-72
2021/12/16 09:40:28;;;;;;;100.43;36.72;;;;;;;8.68;100.00;103779.00;5187569;28;20104;-72
2021/12/16 09:42:59;;;;;;;92.13;37.42;;;;;;;8.70;100.00;103784.28;5193549;28;20105;-73
2021/12/16 09:45:29;;;;;;;88.13;36.13;;;;;;;8.72;100.00;103785.06;5185548;28;20022;-72
2021/12/16 09:48:00;;;;;;;79.70;33.63;;;;;;;8.75;100.00;103791.13;5195206;28;20033;-72
2021/12/16 09:50:32;;;;;;;92.43;36.00;;;;;;;8.78;100.00;103777.56;5180522;28;20080;-73
2021/12/16 09:53:03;;;;;;;88.30;34.42;;;;;;;8.77;100.00;103785.69;5188369;28;20040;-71
2021/12/16 09:55:34;;;;;;;94.05;35.40;;;;;;;8.80;100.00;103793.56;5179534;28;20022;-73
2021/12/16 09:58:05;;;;;;;83.78;34.25;;;;;;;8.82;100.00;103791.66;5180637;28;20568;-72
2021/12/16 10:00:36;;;;;;;80.28;34.50;;;;;;;8.93;100.00;103791.06;5187528;28;20520;-72
2021/12/16 10:03:07;;;;;;;82.65;34.88;;;;;;;8.96;100.00;103794.44;5185321;28;20030;-72
2021/12/16 10:05:37;;;;;;;81.35;31.95;;;;;;;8.99;100.00;103796.97;5199549;28;20208;-72
2021/12/16 10:08:09;;;;;;;92.68;36.28;;;;;;;9.07;100.00;103797.38;5198500;28;20120;-73
2021/12/16 10:10:40;;;;;;;84.75;35.58;;;;;;;9.21;100.00;103803.81;5196499;28;20540;-71
2021/12/16 10:13:13;;;;;;;84.72;33.13;;;;;;;9.30;100.00;103806.84;5198123;28;20158;-72
2021/12/16 10:18:35;;;;;;;76.35;32.55;;;;;;;9.37;100.00;103817.22;5186139;28;20477;-72
2021/12/16 10:21:08;;;;;;;80.07;32.88;;;;;;;9.39;100.00;103805.47;5185319;28;20025;-71
2021/12/16 10:23:43;;;;;;;101.57;43.65;;;;;;;9.41;100.00;103805.38;5188816;28;20032;-72
2021/12/16 10:26:18;;;;;;;73.05;32.63;;;;;;;9.42;100.00;103807.09;5182098;28;20038;-72
2021/12/16 10:28:54;;;;;;;77.38;33.55;;;;;;;9.39;100.00;103805.47;5179848;28;20017;-72
2021/12/16 10:31:45;;;;;;;74.50;31.17;;;;;;;9.41;100.00;103803.56;5191500;28;20522;-71
2021/12/16 10:34:16;;;;;;;79.85;32.78;;;;;;;9.59;100.00;103818.59;5187619;28;20037;-71
2021/12/16 10:36:46;;;;;;;75.05;33.10;;;;;;;9.73;100.00;103815.09;5181076;28;20025;-71
2021/12/16 10:39:22;;;;;;;73.25;33.08;;;;;;;9.86;100.00;103799.19;5192064;28;20049;-72
2021/12/16 10:42:08;;;;;;;68.22;31.35;;;;;;;10.06;100.00;103798.00;5188283;28;20013;-70
2021/12/16 10:44:38;;;;;;;80.30;33.10;;;;;;;10.29;100.00;103812.75;5190191;28;20040;-71
2021/12/16 10:47:13;;;;;;;68.25;31.40;;;;;;;10.50;100.00;103805.25;5191773;28;20013;-71
2021/12/16 10:49:49;;;;;;;60.47;31.42;;;;;;;10.38;100.00;103799.63;5189633;28;20104;-71
2021/12/16 10:52:26;;;;;;;66.07;29.48;;;;;;;10.40;100.00;103794.19;5189661;28;20494;-71
2021/12/16 10:54:59;;;;;;;70.78;30.52;;;;;;;10.43;100.00;103788.63;5189466;28;20037;-73
2021/12/16 10:57:32;;;;;;;61.17;30.30;;;;;;;10.54;100.00;103785.28;5183710;28;20025;-72
2021/12/16 11:00:21;;;;;;;63.20;29.25;;;;;;;10.60;100.00;103791.16;5187530;28;20025;-73
2021/12/16 11:02:51;;;;;;;59.80;28.92;;;;;;;10.65;100.00;103785.50;5192307;28;20648;-73
2021/12/16 11:05:24;;;;;;;67.00;30.83;;;;;;;10.73;100.00;103785.00;5185741;28;20053;-73
2021/12/16 11:07:58;;;;;;;60.75;28.35;;;;;;;10.85;100.00;103774.38;5184657;28;20014;-73
2021/12/16 11:10:34;;;;;;;71.07;30.13;;;;;;;10.92;100.00;103773.97;5184006;28;20075;-73
2021/12/16 11:13:07;;;;;;;;;;;;;;;10.94;100.00;103782.78;5189122;28;20116;-73
2021/12/16 11:15:59;;;;;;;63.08;28.27;;;;;;;11.02;100.00;103788.56;5178198;28;20357;-73
2021/12/16 11:18:30;;;;;;;55.85;26.90;;;;;;;11.04;100.00;103783.94;5183951;28;20025;-73
2021/12/16 11:21:06;;;;;;;65.88;30.50;;;;;;;11.08;100.00;103782.78;5188180;28;20448;-73
2021/12/16 11:23:40;;;;;;;65.25;29.33;;;;;;;11.12;100.00;103787.84;5186132;28;20032;-73
2021/12/16 11:26:15;;;;;;;71.57;28.13;;;;;;;11.10;100.00;103784.41;5186870;28;20028;-73
2021/12/16 11:28:49;;;;;;;64.65;29.92;;;;;;;11.06;100.00;103768.59;5186533;28;20083;-73
2021/12/16 11:31:40;;;;;;;71.28;30.05;;;;;;;11.08;100.00;103772.03;5187399;28;20385;-72
2021/12/16 11:34:11;;;;;;;57.00;26.25;;;;;;;11.14;100.00;103782.38;5195207;28;20117;-72
2021/12/16 11:36:47;;;;;;;56.30;27.30;;;;;;;11.24;100.00;103774.59;5184606;28;20197;-72
2021/12/16 11:39:21;;;;;;;66.50;26.95;;;;;;;11.40;100.00;103769.97;5178284;28;20033;-72
2021/12/16 11:41:59;;;;;;;62.47;27.05;;;;;;;11.31;100.00;103778.63;5181135;28;20048;-72
2021/12/16 11:44:37;;;;;;;66.68;27.92;;;;;;;11.32;100.00;103778.50;5187677;28;20030;-73
2021/12/16 11:47:26;;;;;;;60.75;27.05;;;;;;;11.42;100.00;103778.78;5182784;28;20088;-72
2021/12/16 11:50:02;;;;;;;65.32;29.35;;;;;;;11.41;100.00;103780.59;5166998;28;20029;-72
2021/12/16 11:52:35;;;;;;;65.93;27.02;;;;;;;11.67;100.00;103783.41;5180263;28;20026;-72
2021/12/16 11:55:25;;;;;;;52.65;25.73;;;;;;;11.72;100.00;103785.78;5186833;28;20512;-74
2021/12/16 11:58:01;;;;;;;63.97;28.15;;;;;;;11.73;100.00;103788.34;5182307;28;20083;-73
2021/12/16 12:00:36;;;;;;;59.60;27.35;;;;;;;11.90;100.00;103789.97;5186398;28;20025;-72
2021/12/16 12:03:10;;;;;;;52.95;25.35;;;;;;;11.75;100.00;103780.22;5183007;28;20076;-73
2021/12/16 12:05:59;;;;;;;55.30;28.55;;;;;;;11.69;100.00;103781.44;5189390;28;20031;-73
2021/12/16 12:08:31;;;;;;;59.67;27.00;;;;;;;11.72;100.00;103783.94;5183068;28;20095;-73
2021/12/16 12:11:24;;;;;;;46.70;24.98;;;;;;;11.92;100.00;103783.50;5185741;28;20375;-73
2021/12/16 12:14:00;;;;;;;52.42;25.52;;;;;;;11.94;100.00;103780.69;5184990;28;20021;-72
2021/12/16 12:16:34;;;;;;;56.05;26.48;;;;;;;12.02;100.00;103788.28;5184854;28;20092;-72
2021/12/16 12:19:23;;;;;;;57.53;25.38;;;;;;;12.14;100.00;103795.50;5186053;28;20044;-72
2021/12/16 12:21:58;;;;;;;54.85;26.17;;;;;;;12.08;100.00;103793.22;5188317;28;20036;-72
2021/12/16 12:24:46;;;;;;;55.70;26.60;;;;;;;12.08;100.00;103795.91;5183483;28;20022;-72
2021/12/16 12:27:22;;;;;;;54.22;25.05;;;;;;;12.31;100.00;103789.81;5184940;28;20029;-72
2021/12/16 12:29:58;;;;;;;51.78;24.70;;;;;;;12.21;100.00;103787.88;5182846;28;20072;-72
2021/12/16 12:32:32;;;;;;;48.65;22.88;;;;;;;12.26;100.00;103783.91;5190245;28;20308;-72
2021/12/16 12:35:25;;;;;;;51.28;24.77;;;;;;;12.27;100.00;103780.22;5192577;28;20026;-73
2021/12/16 12:37:58;;;;;;;54.42;23.65;;;;;;;12.31;100.00;103776.38;5177297;28;20066;-74
2021/12/16 12:40:47;;;;;;;60.30;25.48;;;;;;;12.34;100.00;103780.66;5184436;28;20025;-74
2021/12/16 12:43:19;;;;;;;57.55;32.15;;;;;;;12.21;100.00;103793.25;5187649;28;20112;-74
2021/12/16 12:45:49;;;;;;;71.47;35.88;;;;;;;12.13;100.00;103788.41;5195145;28;20021;-73
2021/12/16 12:48:20;;;;;;;83.65;42.00;;;;;;;12.06;100.00;103782.56;5181585;28;20029;-74
2021/12/16 12:50:53;;;;;;;48.72;23.05;;;;;;;12.09;100.00;103787.72;5187385;28;20482;-74
2021/12/16 12:53:26;;;;;;;45.25;23.38;;;;;;;12.04;100.00;103787.19;5189342;28;20044;-74
2021/12/16 12:56:25;;;;;;;46.42;22.70;;;;;;;11.95;100.00;103785.16;5185327;28;20018;-74
2021/12/16 12:58:59;;;;;;;46.53;21.42;;;;;;;12.11;100.00;103777.75;5187892;28;20050;-74
2021/12/16 13:01:51;;;;;;;42.08;20.27;;;;;;;12.31;100.00;103779.06;5195542;28;20032;-73
2021/12/16 13:04:27;;;;;;;43.60;23.40;;;;;;;12.19;100.00;103779.88;5194768;28;20049;-73
2021/12/16 13:07:01;;;;;;;45.88;19.65;;;;;;;12.11;100.00;103777.75;5190015;28;20087;-73
2021/12/16 13:09:34;;;;;;;47.97;21.92;;;;;;;12.07;100.00;103780.75;5190985;28;20026;-72
2021/12/16 13:15:52;;;;;;;39.30;19.08;;;;;;;11.98;100.00;103782.22;5189418;28;20033;-72
2021/12/16 13:27:39;;;;;;;47.22;20.00;;;;;;;12.00;100.00;103774.94;5192341;28;20033;-73
2021/12/16 13:30:27;;;;;;;38.85;19.10;;;;;;;12.05;100.00;103777.28;5180829;28;20433;-73
2021/12/16 13:33:22;;;;;;;41.40;20.20;;;;;;;12.03;100.00;103779.22;5189834;28;20067;-72
2021/12/16 13:36:04;;;;;;;38.40;19.30;;;;;;;11.98;100.00;103773.28;5192746;28;20032;-73
2021/12/16 13:38:53;;;;;;;41.55;20.27;;;;;;;11.82;100.00;103765.41;5195266;28;20064;-73
2021/12/16 13:41:28;;;;;;;43.13;20.20;;;;;;;11.77;100.00;103770.19;5193030;28;20033;-73
2021/12/16 13:44:06;;;;;;;41.00;20.23;;;;;;;11.66;100.00;103769.09;5185301;28;20401;-72
2021/12/16 13:47:06;;;;;;;50.25;20.63;;;;;;;11.62;100.00;103777.47;5189410;28;20052;-73
2021/12/16 14:01:54;;;;;;;37.17;19.75;;;;;;;11.57;100.00;103764.31;5182833;28;20163;-71
2021/12/16 14:07:27;;;;;;;133.98;68.20;;;;;;;11.51;100.00;103767.41;5182279;28;20423;-71
2021/12/16 14:10:06;;;;;;;42.45;17.63;;;;;;;11.39;100.00;103762.84;5184124;28;20033;-71